Weather at Westchester County Airport

Public forecast

Using degrees Fahrenheit for public forecast. Weather courtesy of forecast.io.

Current aviation weather report (METAR) for Westchester County Airport

Retrieved 2021/10/28 16:56 UTC (9 minutes ago):

KHPN 281656Z VRB03KT 10SM FEW040 14/06 A2994 RMK AO2 SLP139 T01390061

Aviation forecast (TAF) for Westchester County Airport

Retrieved 2021/10/28 12:22 UTC (5 hours ago):

TAF KHPN 281120Z 2812/2912 36007KT P6SM SCT025 BKN040 TEMPO 2812/2814 BKN025 FM281500 04007KT P6SM BKN035 TEMPO 2815/2819 BKN030 FM281900 08007KT P6SM BKN035 FM290100 VRB04KT P6SM SCT025 BKN035 AMD NOT SKED